Time;durP1;ratioP1;P1;durP2;ratioP2;P2;SDS_P1;SDS_P2;PMS_P1;PMS_P2;Temp;Humidity;BMP_temperature;BMP_pressure;BME280_temperature;BME280_humidity;BME280_pressure;Samples;Min_cycle;Max_cycle;Signal;HPM_P1;HPM_P2
2023/12/08 00:00:45;;;;;;;18.60;11.35;;;4.90;93.90;;;;;;5033741;28;20395;-79
2023/12/08 00:03:12;;;;;;;16.23;11.70;;;4.90;94.00;;;;;;5033336;28;20308;-79
2023/12/08 00:05:38;;;;;;;17.55;11.68;;;5.00;94.10;;;;;;5039326;28;20284;-79
2023/12/08 00:08:03;;;;;;;17.40;12.15;;;5.00;94.10;;;;;;5037493;28;20032;-80
2023/12/08 00:10:29;;;;;;;18.42;12.45;;;5.00;94.00;;;;;;5040293;28;20025;-79
2023/12/08 00:12:55;;;;;;;16.58;11.63;;;4.90;94.20;;;;;;5039818;28;20029;-80
2023/12/08 00:15:20;;;;;;;17.10;12.05;;;4.90;94.30;;;;;;5040412;28;20072;-81
2023/12/08 00:17:46;;;;;;;16.77;11.70;;;4.90;94.40;;;;;;5039633;28;20026;-81
2023/12/08 00:20:11;;;;;;;19.08;12.68;;;4.90;94.50;;;;;;5040001;28;20029;-81
2023/12/08 00:22:37;;;;;;;18.42;12.88;;;4.80;94.60;;;;;;5039770;28;20052;-81
2023/12/08 00:25:03;;;;;;;17.65;11.85;;;4.80;94.60;;;;;;5037784;28;20508;-81
2023/12/08 00:27:28;;;;;;;20.63;12.50;;;4.90;94.70;;;;;;5042084;28;20025;-80
2023/12/08 00:29:54;;;;;;;20.63;14.13;;;4.90;94.60;;;;;;5038480;28;20033;-81
2023/12/08 00:32:20;;;;;;;20.15;12.75;;;4.80;94.70;;;;;;5038284;28;20466;-81
2023/12/08 00:34:46;;;;;;;18.15;11.60;;;4.90;94.70;;;;;;5043717;28;20083;-82
2023/12/08 00:37:12;;;;;;;17.48;11.98;;;4.90;94.60;;;;;;5039907;28;20025;-81
2023/12/08 00:39:38;;;;;;;20.40;12.52;;;4.90;94.60;;;;;;5054671;28;20126;-80
2023/12/08 00:42:04;;;;;;;17.52;11.98;;;4.90;94.60;;;;;;5040494;28;20032;-81
2023/12/08 00:44:29;;;;;;;18.38;13.10;;;4.90;94.70;;;;;;5039165;28;20125;-82
2023/12/08 00:46:55;;;;;;;18.45;12.60;;;4.90;94.70;;;;;;5037958;28;20018;-82
2023/12/08 00:49:21;;;;;;;18.17;12.65;;;4.90;94.80;;;;;;5037786;28;20040;-81
2023/12/08 00:51:46;;;;;;;17.63;12.52;;;4.90;94.90;;;;;;5040304;28;20495;-81
2023/12/08 00:54:13;;;;;;;18.70;12.73;;;4.90;94.90;;;;;;5042323;28;20056;-81
2023/12/08 00:56:39;;;;;;;18.88;12.95;;;4.90;95.00;;;;;;5038484;28;20063;-81
2023/12/08 00:59:05;;;;;;;20.83;12.50;;;4.90;95.10;;;;;;5038221;28;20032;-81
2023/12/08 01:01:30;;;;;;;19.33;12.68;;;4.90;95.10;;;;;;5040393;28;20086;-82
2023/12/08 01:03:56;;;;;;;18.95;13.27;;;4.90;95.20;;;;;;5039490;28;20024;-81
2023/12/08 01:06:22;;;;;;;18.88;13.02;;;4.90;95.20;;;;;;5037749;28;20032;-81
2023/12/08 01:08:48;;;;;;;17.48;11.98;;;4.90;95.30;;;;;;5039630;28;20139;-81
2023/12/08 01:11:14;;;;;;;17.42;12.73;;;4.90;95.30;;;;;;5028551;28;20041;-81
2023/12/08 01:13:39;;;;;;;18.35;12.40;;;4.90;95.40;;;;;;5037485;28;20481;-81
2023/12/08 01:16:06;;;;;;;20.52;12.70;;;4.90;95.40;;;;;;5029602;28;20102;-81
2023/12/08 01:18:33;;;;;;;19.27;12.80;;;4.90;95.40;;;;;;5039483;28;20341;-80
2023/12/08 01:20:58;;;;;;;19.38;14.00;;;4.90;95.50;;;;;;5039624;28;20017;-80
2023/12/08 01:23:24;;;;;;;19.45;13.68;;;4.90;95.50;;;;;;5042976;28;20156;-80
2023/12/08 01:25:49;;;;;;;19.02;13.13;;;4.90;95.50;;;;;;5041066;28;20028;-81
2023/12/08 01:28:15;;;;;;;20.58;13.85;;;4.90;95.50;;;;;;5032001;28;20143;-80
2023/12/08 01:30:41;;;;;;;19.52;13.10;;;4.90;95.50;;;;;;5030430;28;20083;-80
2023/12/08 01:33:06;;;;;;;19.10;12.93;;;5.00;95.50;;;;;;5032722;28;20033;-81
2023/12/08 01:35:32;;;;;;;19.48;14.15;;;4.90;95.40;;;;;;5041989;28;20049;-81
2023/12/08 01:37:58;;;;;;;18.75;13.25;;;5.00;95.50;;;;;;5037416;28;20104;-81
2023/12/08 01:40:23;;;;;;;21.83;14.23;;;5.00;95.50;;;;;;5034194;28;20041;-81
2023/12/08 01:42:49;;;;;;;20.05;13.85;;;5.00;95.60;;;;;;5026978;28;20038;-81
2023/12/08 01:45:15;;;;;;;20.60;14.35;;;5.00;95.60;;;;;;5036744;28;20029;-80
2023/12/08 01:47:43;;;;;;;20.10;14.02;;;5.00;95.70;;;;;;5030635;28;20544;-80
2023/12/08 01:50:11;;;;;;;21.98;14.30;;;5.00;95.70;;;;;;5036812;28;20047;-80
2023/12/08 01:52:37;;;;;;;20.27;14.43;;;5.00;95.80;;;;;;5038621;28;20040;-80
2023/12/08 01:55:03;;;;;;;20.45;14.15;;;5.10;95.80;;;;;;5053209;28;20044;-79
2023/12/08 01:57:29;;;;;;;22.35;14.70;;;5.00;95.80;;;;;;5061783;28;20037;-80
2023/12/08 01:59:55;;;;;;;20.23;14.30;;;5.10;95.90;;;;;;5059901;28;20017;-80
2023/12/08 02:02:22;;;;;;;21.30;14.93;;;5.10;96.00;;;;;;5054841;28;20072;-80
2023/12/08 02:04:49;;;;;;;22.50;15.95;;;5.10;96.00;;;;;;5046650;28;20045;-80
2023/12/08 02:07:15;;;;;;;24.08;15.32;;;5.00;96.00;;;;;;5047192;28;20047;-80
2023/12/08 02:09:41;;;;;;;26.50;16.13;;;5.10;96.10;;;;;;5041598;28;20490;-80
2023/12/08 02:12:08;;;;;;;24.02;16.25;;;5.00;96.20;;;;;;5038345;28;20021;-80
2023/12/08 02:14:33;;;;;;;23.75;15.38;;;5.10;96.30;;;;;;5037892;28;20400;-79
2023/12/08 02:17:16;;;;;;;22.00;15.85;;;5.10;96.30;;;;;;5033155;28;20120;-80
2023/12/08 02:19:42;;;;;;;23.52;15.15;;;5.10;96.40;;;;;;5034581;28;20073;-80
2023/12/08 02:22:08;;;;;;;22.02;15.27;;;5.10;96.40;;;;;;5040903;28;20029;-80
2023/12/08 02:24:34;;;;;;;22.45;15.80;;;5.10;96.40;;;;;;5037162;28;20071;-80
2023/12/08 02:26:59;;;;;;;24.73;16.35;;;5.10;96.50;;;;;;5039814;28;20029;-80
2023/12/08 02:29:25;;;;;;;25.52;16.48;;;5.10;96.60;;;;;;5038644;28;20489;-79
2023/12/08 02:31:59;;;;;;;22.98;16.33;;;5.10;96.60;;;;;;5030845;28;20025;-80
2023/12/08 02:34:28;;;;;;;25.25;17.60;;;5.10;96.70;;;;;;5038347;28;20398;-80
2023/12/08 02:36:54;;;;;;;25.80;17.90;;;5.10;96.70;;;;;;5029931;28;20041;-80
2023/12/08 02:39:21;;;;;;;27.27;19.13;;;5.10;96.90;;;;;;5041124;28;20057;-80
2023/12/08 02:41:47;;;;;;;25.35;18.25;;;5.10;96.90;;;;;;5037786;28;20060;-80
2023/12/08 02:44:12;;;;;;;26.25;18.17;;;5.10;97.00;;;;;;5034027;28;20127;-81
2023/12/08 02:46:39;;;;;;;28.08;17.95;;;5.20;97.00;;;;;;5038660;28;20491;-80
2023/12/08 02:49:04;;;;;;;28.25;18.40;;;5.20;97.00;;;;;;5037856;28;20025;-80
2023/12/08 02:51:30;;;;;;;27.88;18.58;;;5.20;97.00;;;;;;5033576;28;20512;-80
2023/12/08 02:53:58;;;;;;;31.20;19.73;;;5.20;97.10;;;;;;5037784;28;20183;-80
2023/12/08 02:56:24;;;;;;;28.08;18.15;;;5.20;97.10;;;;;;5031851;28;20049;-79
2023/12/08 02:58:50;;;;;;;28.60;17.50;;;5.20;97.10;;;;;;5033819;28;20030;-80
2023/12/08 03:01:15;;;;;;;29.30;18.15;;;5.20;97.20;;;;;;5028970;28;20060;-80
2023/12/08 03:03:41;;;;;;;27.23;18.17;;;5.20;97.20;;;;;;5037755;28;20029;-80
2023/12/08 03:06:07;;;;;;;27.35;18.05;;;5.20;97.30;;;;;;5035974;28;20037;-80
2023/12/08 03:08:33;;;;;;;26.15;17.60;;;5.20;97.30;;;;;;5035946;28;20025;-81
2023/12/08 03:10:58;;;;;;;24.90;17.80;;;5.20;97.30;;;;;;5032867;28;20049;-81
2023/12/08 03:13:24;;;;;;;30.00;17.95;;;5.30;97.40;;;;;;5027472;28;20160;-81
2023/12/08 03:15:50;;;;;;;26.23;17.33;;;5.30;97.40;;;;;;5028228;28;20115;-80
2023/12/08 03:18:15;;;;;;;27.23;18.25;;;5.30;97.40;;;;;;5032631;28;20041;-81
2023/12/08 03:20:41;;;;;;;31.40;18.55;;;5.30;97.30;;;;;;5032448;28;20040;-81
2023/12/08 03:23:07;;;;;;;31.98;18.23;;;5.30;97.50;;;;;;5029893;28;20033;-81
2023/12/08 03:25:32;;;;;;;26.63;18.83;;;5.30;97.50;;;;;;5035204;28;20044;-81
2023/12/08 03:27:58;;;;;;;31.95;20.17;;;5.40;97.50;;;;;;5037886;28;20043;-79
2023/12/08 03:30:23;;;;;;;27.30;18.85;;;5.40;97.50;;;;;;5036568;28;20033;-80
2023/12/08 03:32:49;;;;;;;30.73;18.63;;;5.40;97.50;;;;;;5035333;28;20431;-80
2023/12/08 03:35:15;;;;;;;29.92;18.63;;;5.40;97.60;;;;;;5038426;28;21046;-80
2023/12/08 03:37:41;;;;;;;29.45;18.85;;;5.40;97.60;;;;;;5033667;28;20033;-80
2023/12/08 03:40:07;;;;;;;33.72;19.83;;;5.40;97.60;;;;;;5032816;28;20091;-80
2023/12/08 03:42:36;;;;;;;33.47;19.98;;;5.40;97.70;;;;;;5033088;28;20116;-79
2023/12/08 03:45:05;;;;;;;31.45;19.90;;;5.40;97.70;;;;;;5035318;28;20037;-80
2023/12/08 03:47:31;;;;;;;29.23;19.77;;;5.40;97.70;;;;;;5027742;28;20753;-82
2023/12/08 03:49:56;;;;;;;33.47;20.80;;;5.50;97.80;;;;;;5037226;28;20025;-82
2023/12/08 03:52:22;;;;;;;33.60;19.67;;;5.40;97.70;;;;;;5038544;28;20148;-82
2023/12/08 03:54:47;;;;;;;31.67;19.80;;;5.50;97.80;;;;;;5037056;28;20124;-81
2023/12/08 03:57:13;;;;;;;31.63;19.88;;;5.50;97.80;;;;;;5035842;28;20080;-82
2023/12/08 03:59:41;;;;;;;34.13;19.45;;;5.50;97.90;;;;;;5039578;28;20033;-80
2023/12/08 04:02:07;;;;;;;36.08;20.05;;;5.50;97.90;;;;;;5035614;28;20032;-81
2023/12/08 04:04:32;;;;;;;38.13;20.75;;;5.50;97.90;;;;;;5042564;28;20033;-82
2023/12/08 04:06:58;;;;;;;35.70;20.70;;;5.50;97.90;;;;;;5036200;28;20032;-82
2023/12/08 04:09:24;;;;;;;43.13;22.73;;;5.50;98.00;;;;;;5040239;28;20439;-82
2023/12/08 04:11:50;;;;;;;34.90;21.67;;;5.50;98.00;;;;;;5033086;28;20545;-82
2023/12/08 04:14:15;;;;;;;40.72;22.58;;;5.50;98.10;;;;;;5041730;28;20078;-80
2023/12/08 04:16:41;;;;;;;39.03;21.70;;;5.50;98.10;;;;;;5035677;28;20037;-80
2023/12/08 04:19:06;;;;;;;37.00;20.05;;;5.60;98.10;;;;;;5034512;28;20035;-81
2023/12/08 04:21:32;;;;;;;37.47;21.02;;;5.60;98.20;;;;;;5036843;28;20490;-80
2023/12/08 04:23:58;;;;;;;38.25;21.95;;;5.60;98.20;;;;;;5033953;28;20321;-80
2023/12/08 04:26:27;;;;;;;36.80;21.27;;;5.60;98.10;;;;;;5039088;28;20059;-79
2023/12/08 04:28:53;;;;;;;43.65;22.30;;;5.60;98.10;;;;;;5033863;28;20556;-80
2023/12/08 04:31:19;;;;;;;40.22;22.25;;;5.60;98.10;;;;;;5032438;28;20036;-81
2023/12/08 04:33:46;;;;;;;35.17;21.80;;;5.60;98.20;;;;;;5031254;28;20549;-81
2023/12/08 04:36:11;;;;;;;41.63;22.38;;;5.70;98.20;;;;;;5038134;28;20053;-80
2023/12/08 04:38:37;;;;;;;41.90;23.00;;;5.70;98.20;;;;;;5029432;28;20355;-81
2023/12/08 04:41:03;;;;;;;47.63;24.30;;;5.70;98.20;;;;;;5034874;28;20146;-80
2023/12/08 04:43:28;;;;;;;47.08;23.48;;;5.70;98.30;;;;;;5028583;28;20482;-80
2023/12/08 04:45:55;;;;;;;45.83;23.42;;;5.70;98.30;;;;;;5035641;28;20041;-81
2023/12/08 04:48:21;;;;;;;47.35;23.83;;;5.70;98.30;;;;;;5033644;28;20017;-80
2023/12/08 04:50:46;;;;;;;41.08;22.98;;;5.70;98.20;;;;;;5039304;28;20190;-80
2023/12/08 04:53:12;;;;;;;42.88;24.23;;;5.80;98.30;;;;;;5041291;28;20141;-80
2023/12/08 04:55:38;;;;;;;42.17;23.02;;;5.70;98.30;;;;;;5043080;28;20029;-81
2023/12/08 04:58:04;;;;;;;44.58;25.42;;;5.80;98.30;;;;;;5041379;28;20013;-81
2023/12/08 05:00:29;;;;;;;42.20;24.50;;;5.80;98.40;;;;;;5039735;28;20037;-81
2023/12/08 05:02:57;;;;;;;53.45;26.40;;;5.80;98.40;;;;;;5043063;28;20489;-81
2023/12/08 05:05:24;;;;;;;49.58;24.77;;;5.80;98.40;;;;;;5041372;28;20048;-81
2023/12/08 05:07:50;;;;;;;55.28;25.50;;;5.80;98.40;;;;;;5044328;28;20017;-82
2023/12/08 05:10:16;;;;;;;48.08;25.23;;;5.80;98.40;;;;;;5039676;28;20662;-82
2023/12/08 05:12:43;;;;;;;54.05;26.77;;;5.80;98.40;;;;;;5033782;28;20124;-81
2023/12/08 05:15:09;;;;;;;49.67;25.02;;;5.80;98.50;;;;;;5040534;28;20037;-81
2023/12/08 05:17:35;;;;;;;51.03;27.40;;;5.80;98.50;;;;;;5034180;28;20033;-81
2023/12/08 05:20:05;;;;;;;50.08;25.77;;;5.80;98.50;;;;;;5043341;28;20029;-81
2023/12/08 05:22:31;;;;;;;55.67;26.00;;;5.80;98.60;;;;;;5040901;28;20013;-81
2023/12/08 05:24:56;;;;;;;52.28;25.98;;;5.80;98.60;;;;;;5042076;28;20044;-81
2023/12/08 05:27:22;;;;;;;46.92;26.60;;;5.80;98.60;;;;;;5043795;28;20720;-81
2023/12/08 05:29:48;;;;;;;48.25;25.25;;;5.80;98.70;;;;;;5040828;28;20029;-82
2023/12/08 05:32:13;;;;;;;53.08;25.52;;;5.80;98.70;;;;;;5034409;28;20509;-81
2023/12/08 05:34:39;;;;;;;49.13;25.92;;;5.80;98.70;;;;;;5035386;28;20086;-81
2023/12/08 05:37:05;;;;;;;45.40;25.30;;;5.80;98.80;;;;;;5040051;28;20027;-82
2023/12/08 05:39:31;;;;;;;54.97;27.77;;;5.80;98.80;;;;;;5034583;28;20113;-82
2023/12/08 05:41:56;;;;;;;46.22;27.15;;;5.80;98.80;;;;;;5042755;28;20037;-82
2023/12/08 05:44:22;;;;;;;51.88;25.50;;;5.80;98.80;;;;;;5032146;28;20029;-81
2023/12/08 05:46:48;;;;;;;47.40;26.33;;;5.90;98.90;;;;;;5042362;28;20701;-81
2023/12/08 05:49:14;;;;;;;47.22;25.75;;;5.90;98.90;;;;;;5041249;28;20032;-82
2023/12/08 05:51:39;;;;;;;53.33;27.85;;;6.00;98.90;;;;;;5036466;28;20375;-82
2023/12/08 05:54:05;;;;;;;51.17;25.98;;;6.00;98.90;;;;;;5037854;28;20078;-81
2023/12/08 05:56:31;;;;;;;49.25;26.77;;;6.00;99.00;;;;;;5035970;28;20291;-82
2023/12/08 05:58:57;;;;;;;49.13;25.73;;;6.10;99.00;;;;;;5036216;28;20307;-81
2023/12/08 06:01:22;;;;;;;60.17;27.40;;;6.10;99.00;;;;;;5033630;28;20493;-81
2023/12/08 06:03:48;;;;;;;51.25;27.75;;;6.10;99.00;;;;;;5025364;28;20058;-82
2023/12/08 06:06:13;;;;;;;53.17;26.50;;;6.10;99.00;;;;;;5038005;28;20124;-81
2023/12/08 06:08:39;;;;;;;58.47;26.58;;;6.10;99.00;;;;;;5039923;28;20060;-81
2023/12/08 06:11:06;;;;;;;48.03;25.38;;;6.20;99.00;;;;;;5039619;28;20378;-81
2023/12/08 06:13:31;;;;;;;48.22;26.33;;;6.20;99.00;;;;;;5038622;28;20075;-82
2023/12/08 06:15:57;;;;;;;47.50;25.88;;;6.20;99.00;;;;;;5035671;28;20061;-82
2023/12/08 06:18:23;;;;;;;46.72;24.65;;;6.20;99.10;;;;;;5037020;28;20083;-82
2023/12/08 06:20:49;;;;;;;49.53;25.90;;;6.30;99.10;;;;;;5040474;28;20033;-82
2023/12/08 06:23:14;;;;;;;50.05;26.95;;;6.30;99.10;;;;;;5037206;28;20021;-82
2023/12/08 06:25:40;;;;;;;46.50;25.15;;;6.30;99.10;;;;;;5040548;28;20036;-81
2023/12/08 06:28:05;;;;;;;57.10;26.30;;;6.40;99.10;;;;;;5036306;28;20025;-80
2023/12/08 06:30:31;;;;;;;56.35;25.58;;;6.30;99.10;;;;;;5037571;28;20037;-81
2023/12/08 06:32:57;;;;;;;55.10;24.95;;;6.40;99.20;;;;;;5036069;28;20072;-81
2023/12/08 06:35:22;;;;;;;52.42;26.33;;;6.40;99.20;;;;;;5037133;28;20542;-80
2023/12/08 06:37:48;;;;;;;54.63;24.20;;;6.40;99.20;;;;;;5033139;28;20025;-80
2023/12/08 06:40:14;;;;;;;51.05;24.75;;;6.40;99.30;;;;;;5033187;28;20048;-80
2023/12/08 06:42:39;;;;;;;56.17;26.30;;;6.50;99.40;;;;;;5037469;28;20021;-81
2023/12/08 06:45:07;;;;;;;58.92;26.10;;;6.50;99.40;;;;;;5037260;28;20366;-80
2023/12/08 06:47:32;;;;;;;60.17;26.98;;;6.60;99.40;;;;;;5040382;28;20037;-80
2023/12/08 06:49:58;;;;;;;54.25;27.10;;;6.60;99.50;;;;;;5031656;28;20041;-80
2023/12/08 06:52:24;;;;;;;57.40;25.95;;;6.60;99.50;;;;;;5033355;28;20446;-81
2023/12/08 06:54:50;;;;;;;62.65;28.25;;;6.60;99.50;;;;;;5035451;28;20049;-81
2023/12/08 06:57:15;;;;;;;63.53;26.98;;;6.70;99.50;;;;;;5036766;28;20508;-80
2023/12/08 06:59:41;;;;;;;58.22;26.52;;;6.70;99.60;;;;;;5041207;28;20068;-80
2023/12/08 07:02:06;;;;;;;71.07;29.83;;;6.70;99.50;;;;;;5059805;28;20044;-80
2023/12/08 07:04:32;;;;;;;62.55;26.67;;;6.80;99.60;;;;;;5063134;28;20043;-80
2023/12/08 07:06:58;;;;;;;60.47;28.33;;;6.80;99.60;;;;;;5070929;28;20029;-80
2023/12/08 07:09:24;;;;;;;61.30;27.38;;;6.80;99.60;;;;;;5044732;28;20408;-80
2023/12/08 07:11:50;;;;;;;54.78;26.90;;;6.80;99.60;;;;;;5045765;28;20031;-81
2023/12/08 07:14:15;;;;;;;51.15;26.17;;;6.80;99.60;;;;;;5043850;28;20238;-81
2023/12/08 07:16:44;;;;;;;70.70;28.50;;;6.80;99.60;;;;;;5033909;28;20041;-80
2023/12/08 07:19:10;;;;;;;65.72;28.92;;;6.80;99.60;;;;;;5032018;28;20017;-75
2023/12/08 07:21:42;;;;;;;76.43;30.17;;;6.90;99.60;;;;;;5035861;28;20113;-75
2023/12/08 07:24:09;;;;;;;84.13;31.13;;;6.90;99.70;;;;;;5039868;28;20412;-75
2023/12/08 07:26:34;;;;;;;65.03;28.45;;;6.90;99.70;;;;;;5033279;28;20596;-75
2023/12/08 07:29:00;;;;;;;73.28;29.92;;;6.90;99.70;;;;;;5032042;28;20061;-74
2023/12/08 07:31:26;;;;;;;73.55;28.60;;;7.00;99.80;;;;;;5037963;28;20043;-78
2023/12/08 07:33:51;;;;;;;75.65;30.40;;;7.10;99.80;;;;;;5039439;28;20055;-76
2023/12/08 07:36:17;;;;;;;78.28;29.75;;;7.10;99.80;;;;;;5025978;28;20041;-76
2023/12/08 07:38:43;;;;;;;75.30;29.77;;;7.10;99.80;;;;;;5038145;28;20025;-77
2023/12/08 07:41:09;;;;;;;70.18;30.88;;;7.10;99.80;;;;;;5037480;28;20234;-78
2023/12/08 07:43:35;;;;;;;71.47;30.98;;;7.10;99.80;;;;;;5038645;28;20043;-77
2023/12/08 07:46:01;;;;;;;96.65;31.90;;;7.10;99.90;;;;;;5031105;28;20124;-76
2023/12/08 07:48:27;;;;;;;73.13;30.92;;;7.10;99.90;;;;;;5040683;28;20109;-77
2023/12/08 07:50:53;;;;;;;93.18;31.85;;;7.20;99.90;;;;;;5038898;28;20125;-78
2023/12/08 07:53:19;;;;;;;83.97;31.50;;;7.10;99.90;;;;;;5042400;28;20104;-77
2023/12/08 07:55:44;;;;;;;87.35;32.45;;;7.20;99.90;;;;;;5032633;28;20037;-79
2023/12/08 07:58:10;;;;;;;78.65;32.33;;;7.10;99.90;;;;;;5038129;28;20433;-77
2023/12/08 08:00:37;;;;;;;81.75;31.17;;;7.20;99.90;;;;;;5037611;28;20044;-77
2023/12/08 08:03:04;;;;;;;80.60;31.60;;;7.10;99.90;;;;;;5033457;28;20432;-78
2023/12/08 08:05:30;;;;;;;93.63;33.13;;;7.20;99.90;;;;;;5036323;28;20036;-76
2023/12/08 08:07:56;;;;;;;75.25;32.72;;;7.20;99.90;;;;;;5032557;28;20234;-78
2023/12/08 08:10:22;;;;;;;91.10;33.65;;;7.20;99.90;;;;;;5039791;28;20033;-77
2023/12/08 08:12:48;;;;;;;95.47;34.80;;;7.20;99.90;;;;;;5039031;28;20489;-76
2023/12/08 08:15:14;;;;;;;96.28;34.35;;;7.20;99.90;;;;;;5042057;28;20075;-76
2023/12/08 08:17:40;;;;;;;91.07;34.95;;;7.20;99.90;;;;;;5031337;28;20061;-77
2023/12/08 08:20:06;;;;;;;75.28;35.78;;;7.20;99.90;;;;;;5035052;28;20037;-76
2023/12/08 08:22:32;;;;;;;86.07;34.00;;;7.20;99.90;;;;;;5036662;28;20298;-76
2023/12/08 08:25:01;;;;;;;84.80;33.30;;;7.30;99.90;;;;;;5039340;28;20037;-76
2023/12/08 08:27:28;;;;;;;84.72;32.97;;;7.20;99.90;;;;;;5042906;28;20035;-77
2023/12/08 08:29:54;;;;;;;81.28;32.97;;;7.20;99.90;;;;;;5039672;28;20132;-77
2023/12/08 08:32:19;;;;;;;85.75;34.50;;;7.30;99.90;;;;;;5039600;28;20535;-76
2023/12/08 08:34:45;;;;;;;91.82;32.92;;;7.30;99.90;;;;;;5039743;28;20453;-77
2023/12/08 08:37:11;;;;;;;83.25;31.20;;;7.30;99.90;;;;;;5040810;28;20441;-76
2023/12/08 08:39:37;;;;;;;90.25;32.85;;;7.30;99.90;;;;;;5039912;28;20343;-76
2023/12/08 08:42:03;;;;;;;84.90;34.65;;;7.30;99.90;;;;;;5036054;28;20501;-76
2023/12/08 08:44:29;;;;;;;84.85;34.33;;;7.40;99.90;;;;;;5037628;28;20159;-77
2023/12/08 08:46:55;;;;;;;76.65;31.52;;;7.40;99.90;;;;;;5042443;28;20099;-77
2023/12/08 08:49:22;;;;;;;94.82;32.65;;;7.50;99.90;;;;;;5031938;28;20038;-76
2023/12/08 08:51:47;;;;;;;77.07;31.63;;;7.50;99.90;;;;;;5034847;28;20041;-77
2023/12/08 08:54:13;;;;;;;77.88;32.55;;;7.50;99.90;;;;;;5036725;28;20270;-77
2023/12/08 08:56:39;;;;;;;79.93;33.78;;;7.50;99.90;;;;;;5041766;28;20037;-77
2023/12/08 08:59:05;;;;;;;92.03;32.65;;;7.50;99.90;;;;;;5038878;28;20100;-76
2023/12/08 09:01:30;;;;;;;86.40;32.08;;;7.60;99.90;;;;;;5039229;28;20029;-75
2023/12/08 09:03:56;;;;;;;95.97;33.30;;;7.60;99.90;;;;;;5043830;28;20040;-76
2023/12/08 09:06:22;;;;;;;83.50;32.33;;;7.60;99.90;;;;;;5033327;28;20029;-75
2023/12/08 09:08:47;;;;;;;97.57;33.80;;;7.70;99.90;;;;;;5045405;28;20101;-74
2023/12/08 09:11:13;;;;;;;81.97;32.85;;;7.70;99.90;;;;;;5043190;28;20029;-78
2023/12/08 09:13:39;;;;;;;83.50;32.55;;;7.70;99.90;;;;;;5037383;28;20336;-74
2023/12/08 09:16:05;;;;;;;93.15;34.90;;;7.70;99.90;;;;;;5043862;28;20067;-78
2023/12/08 09:18:32;;;;;;;73.43;33.42;;;7.70;99.90;;;;;;5036012;28;20144;-77
2023/12/08 09:20:58;;;;;;;89.82;37.15;;;7.80;99.90;;;;;;5028571;28;20057;-74
2023/12/08 09:23:24;;;;;;;80.28;34.67;;;7.80;99.90;;;;;;5041057;28;20035;-76
2023/12/08 09:25:49;;;;;;;80.85;35.17;;;7.80;99.90;;;;;;5040929;28;20325;-78
2023/12/08 09:28:17;;;;;;;80.20;35.67;;;7.80;99.90;;;;;;5039564;28;20119;-76
2023/12/08 09:30:43;;;;;;;90.05;37.15;;;7.80;99.90;;;;;;5039016;28;20029;-75
2023/12/08 09:33:09;;;;;;;122.45;58.42;;;7.80;99.90;;;;;;5033647;28;20418;-76
2023/12/08 09:35:35;;;;;;;85.82;43.20;;;7.80;99.90;;;;;;5040185;28;20116;-77
2023/12/08 09:38:03;;;;;;;104.32;47.10;;;7.80;99.90;;;;;;5041385;28;20124;-76
2023/12/08 09:40:31;;;;;;;87.93;36.33;;;7.90;99.90;;;;;;5037212;28;20155;-78
2023/12/08 09:43:00;;;;;;;89.93;40.10;;;7.80;99.90;;;;;;5034409;28;20034;-76
2023/12/08 09:45:26;;;;;;;79.90;36.03;;;7.90;99.90;;;;;;5033208;28;20454;-77
2023/12/08 09:47:54;;;;;;;99.50;45.15;;;7.90;99.90;;;;;;5031224;28;20108;-76
2023/12/08 09:50:22;;;;;;;80.88;39.72;;;7.90;99.90;;;;;;5033396;28;20029;-76
2023/12/08 09:52:49;;;;;;;94.75;39.90;;;7.90;99.90;;;;;;5039912;28;20087;-77
2023/12/08 09:55:16;;;;;;;93.07;36.80;;;8.00;99.90;;;;;;5036418;28;20617;-78
2023/12/08 09:57:44;;;;;;;85.82;37.10;;;8.00;99.90;;;;;;5039409;28;20470;-77
2023/12/08 10:00:13;;;;;;;77.10;35.10;;;8.00;99.90;;;;;;5037260;28;20140;-78
2023/12/08 10:02:40;;;;;;;91.55;38.60;;;8.10;99.90;;;;;;5042001;28;20535;-76
2023/12/08 10:05:12;;;;;;;79.75;35.72;;;8.10;99.90;;;;;;5035828;28;20084;-76
2023/12/08 10:07:43;;;;;;;81.28;34.33;;;8.20;99.90;;;;;;5035774;28;20068;-76
2023/12/08 10:10:09;;;;;;;78.90;34.22;;;8.10;99.90;;;;;;5034518;28;20036;-76
2023/12/08 10:12:36;;;;;;;80.45;34.80;;;8.20;99.90;;;;;;5039147;28;20024;-76
2023/12/08 10:15:02;;;;;;;94.82;37.22;;;8.30;99.90;;;;;;5036114;28;20037;-77
2023/12/08 10:17:28;;;;;;;81.82;35.03;;;8.20;99.90;;;;;;5043280;28;20032;-77
2023/12/08 10:20:10;;;;;;;89.38;35.67;;;8.30;99.90;;;;;;5030174;28;20041;-76
2023/12/08 10:22:46;;;;;;;70.85;34.47;;;8.30;99.90;;;;;;5034287;28;20472;-77
2023/12/08 10:25:16;;;;;;;80.63;36.00;;;8.30;99.90;;;;;;5034640;28;20036;-77
2023/12/08 10:27:42;;;;;;;76.18;36.45;;;8.30;99.90;;;;;;5032542;28;20127;-77
2023/12/08 10:30:09;;;;;;;86.18;35.97;;;8.40;99.90;;;;;;5044910;28;20033;-77
2023/12/08 10:32:34;;;;;;;82.57;34.65;;;8.40;99.90;;;;;;5030899;28;20075;-78
2023/12/08 10:35:00;;;;;;;77.28;34.15;;;8.40;99.90;;;;;;5036168;28;20434;-75
2023/12/08 10:37:26;;;;;;;84.50;35.00;;;8.40;99.90;;;;;;5038880;28;20402;-76
2023/12/08 10:39:52;;;;;;;90.50;36.05;;;8.50;99.90;;;;;;5034749;28;20494;-76
2023/12/08 10:42:18;;;;;;;89.18;36.33;;;8.50;99.90;;;;;;5031737;28;20029;-77
2023/12/08 10:44:47;;;;;;;88.13;34.50;;;8.50;99.90;;;;;;5035812;28;20049;-74
2023/12/08 10:47:12;;;;;;;96.15;37.22;;;8.60;99.90;;;;;;5034058;28;20101;-74
2023/12/08 10:49:39;;;;;;;96.15;47.47;;;8.60;99.90;;;;;;5031251;28;20025;-77
2023/12/08 10:52:06;;;;;;;90.22;40.50;;;8.60;99.90;;;;;;5037326;28;20714;-74
2023/12/08 10:54:32;;;;;;;99.63;43.13;;;8.60;99.90;;;;;;5037138;28;20465;-76
2023/12/08 10:56:58;;;;;;;105.40;49.55;;;8.60;99.90;;;;;;5031762;28;20410;-76
2023/12/08 10:59:25;;;;;;;94.82;45.45;;;8.60;99.90;;;;;;5034687;28;20040;-74
2023/12/08 11:01:54;;;;;;;89.85;39.40;;;8.60;99.90;;;;;;5033098;28;20462;-77
2023/12/08 11:04:21;;;;;;;109.85;49.08;;;8.70;99.90;;;;;;5033134;28;20033;-77
2023/12/08 11:06:59;;;;;;;94.80;44.72;;;8.70;99.90;;;;;;5036118;28;20025;-78
2023/12/08 11:09:27;;;;;;;98.38;42.90;;;8.70;99.90;;;;;;5038890;28;20048;-80
2023/12/08 11:11:55;;;;;;;91.35;42.95;;;8.70;99.90;;;;;;5039823;28;20067;-81
2023/12/08 11:14:48;;;;;;;122.00;54.55;;;8.60;99.90;;;;;;5038610;28;20487;-78
2023/12/08 11:17:22;;;;;;;101.57;43.72;;;8.70;99.90;;;;;;5030253;28;20037;-78
2023/12/08 11:19:49;;;;;;;98.40;40.47;;;8.70;99.90;;;;;;5031995;28;20793;-75
2023/12/08 11:22:15;;;;;;;97.57;38.95;;;8.80;99.90;;;;;;5033844;28;20009;-78
2023/12/08 11:24:42;;;;;;;94.03;39.75;;;8.70;99.90;;;;;;5026801;28;20026;-74
2023/12/08 11:27:15;;;;;;;88.60;39.53;;;8.80;99.90;;;;;;5027805;28;20021;-76
2023/12/08 11:29:52;;;;;;;102.47;44.57;;;8.80;99.90;;;;;;5029007;28;20033;-75
2023/12/08 11:32:27;;;;;;;96.30;43.95;;;8.80;99.90;;;;;;5024912;28;20029;-78
2023/12/08 11:35:07;;;;;;;87.70;40.63;;;8.80;99.90;;;;;;5030243;28;20763;-79
2023/12/08 11:37:33;;;;;;;90.85;41.50;;;8.90;99.90;;;;;;5028426;28;20021;-80
2023/12/08 11:40:01;;;;;;;86.68;41.35;;;8.90;99.90;;;;;;5029012;28;20087;-79
2023/12/08 11:42:27;;;;;;;81.57;35.45;;;8.90;99.90;;;;;;5028581;28;20051;-81
2023/12/08 11:44:56;;;;;;;85.93;36.55;;;8.90;99.90;;;;;;5029141;28;20048;-78
2023/12/08 11:47:25;;;;;;;99.43;42.50;;;9.00;99.90;;;;;;5030620;28;20103;-80
2023/12/08 11:49:53;;;;;;;99.55;50.83;;;9.00;99.90;;;;;;5033290;28;20040;-76
2023/12/08 11:52:24;;;;;;;93.80;42.20;;;9.00;99.90;;;;;;5025695;28;20353;-76
2023/12/08 11:55:19;;;;;;;97.93;42.60;;;9.00;99.90;;;;;;5028041;28;20049;-80
2023/12/08 11:57:48;;;;;;;89.32;42.72;;;9.00;99.90;;;;;;5025939;28;20021;-76
2023/12/08 12:00:19;;;;;;;92.88;41.20;;;9.10;99.90;;;;;;5028775;28;20048;-75
2023/12/08 12:02:46;;;;;;;110.53;49.60;;;9.10;99.90;;;;;;5041464;28;20104;-77
2023/12/08 12:05:12;;;;;;;93.20;43.35;;;9.10;99.90;;;;;;5040716;28;20029;-74
2023/12/08 12:07:39;;;;;;;102.60;50.67;;;9.10;99.90;;;;;;5046718;28;20031;-74
2023/12/08 12:10:10;;;;;;;69.22;32.28;;;9.10;99.90;;;;;;5039151;28;20025;-76
2023/12/08 12:12:38;;;;;;;78.18;34.58;;;9.20;99.90;;;;;;5062150;28;20017;-79
2023/12/08 12:15:05;;;;;;;89.10;46.40;;;9.20;99.90;;;;;;5064362;28;20071;-78
2023/12/08 12:17:31;;;;;;;90.07;46.63;;;9.30;99.90;;;;;;5058515;28;20041;-79
2023/12/08 12:19:57;;;;;;;78.32;38.47;;;9.30;99.90;;;;;;5035186;28;20122;-77
2023/12/08 12:22:22;;;;;;;76.18;33.88;;;9.40;99.90;;;;;;5040200;28;20067;-76
2023/12/08 12:24:48;;;;;;;81.13;35.38;;;9.50;99.90;;;;;;5040421;28;20033;-77
2023/12/08 12:27:14;;;;;;;80.78;36.65;;;9.50;99.90;;;;;;5047112;28;20238;-76
2023/12/08 12:29:42;;;;;;;76.50;38.10;;;9.60;99.90;;;;;;5043555;28;20339;-75
2023/12/08 12:32:08;;;;;;;74.75;36.63;;;9.60;99.90;;;;;;5045464;28;20051;-75